Data for 10/03/2017

Time Sea-Level Adjusted Pressure Absolute Pressure Temperature Relative Humidity Dew Point   
(mb) (inHg) (mb) (inHg) (C) (F) (%) (C) (F)
00:05 1024 30.24 853 25.19 -3.3 26.1 90 -4.7 23.5
00:10 1024 30.24 853 25.19 -3.4 26 90 -4.8 23.4
00:15 1024 30.24 853 25.19 -3.4 26 90 -4.7 23.5
00:20 1024 30.24 853 25.19 -3.4 25.9 90 -4.8 23.3
00:25 1024 30.24 853 25.19 -3.5 25.8 90 -4.9 23.1
00:30 1024 30.24 853 25.19 -3.5 25.7 89 -5 23
00:35 1024 30.24 853 25.19 -3.6 25.6 90 -5 23
00:40 1024 30.24 853 25.19 -3.5 25.6 90 -5 23
00:45 1024 30.24 853 25.19 -3.6 25.6 90 -5 23
00:50 1024 30.24 853 25.19 -3.6 25.5 90 -5 23
00:55 1024 30.24 853 25.19 -3.6 25.5 90 -5 23
01:00 1024 30.24 853 25.19 -3.6 25.6 91 -4.9 23.2
01:05 1024 30.24 853 25.19 -3.5 25.6 91 -4.9 23.3
01:10 1024 30.24 853 25.19 -3.5 25.7 91 -4.8 23.4
01:15 1024 30.24 853 25.19 -3.4 25.9 91 -4.7 23.5
01:20 1024 30.24 853 25.19 -3.4 25.9 91 -4.7 23.5
01:25 1024 30.24 853 25.19 -3.4 25.9 90 -4.7 23.5
01:30 1024 30.24 853 25.19 -3.5 25.8 91 -4.8 23.4
01:35 1024 30.24 853 25.19 -3.5 25.7 90 -4.8 23.3
01:40 1024 30.24 853 25.19 -3.5 25.7 91 -4.8 23.4
01:45 1024 30.24 853 25.19 -3.4 25.8 91 -4.8 23.4
01:50 1024 30.24 853 25.19 -3.5 25.8 90 -4.8 23.3
01:55 1024 30.24 853 25.19 -3.5 25.7 90 -4.9 23.3
02:00 1024 30.24 854 25.22 -3.5 25.7 90 -4.9 23.1
02:05 1024 30.24 854 25.22 -3.6 25.6 90 -5 23
02:10 1024 30.24 854 25.22 -3.6 25.6 90 -5 23
02:15 1024 30.24 854 25.22 -3.6 25.6 90 -5 23
02:20 1024 30.24 854 25.22 -3.6 25.6 90 -5 22.9
02:25 1024 30.24 854 25.22 -3.6 25.6 90 -5 23
02:30 1025 30.27 854 25.22 -3.6 25.6 89 -5.1 22.8
02:35 1025 30.27 854 25.22 -3.6 25.6 89 -5.1 22.8
02:40 1025 30.27 854 25.22 -3.5 25.6 89 -5.2 22.7
02:45 1025 30.27 854 25.22 -3.6 25.6 88 -5.2 22.6
02:50 1025 30.27 854 25.22 -3.6 25.5 88 -5.3 22.4
02:55 1025 30.27 854 25.22 -3.7 25.3 88 -5.4 22.3
03:00 1025 30.27 854 25.22 -3.8 25.2 88 -5.4 22.3
03:05 1025 30.27 854 25.22 -3.8 25.1 88 -5.6 22
03:10 1025 30.27 854 25.22 -3.9 25 87 -5.7 21.7
03:15 1025 30.27 854 25.22 -3.9 25 88 -5.7 21.8
03:20 1025 30.27 854 25.22 -3.8 25.1 86 -5.8 21.6
03:25 1025 30.27 854 25.22 -3.8 25.2 85 -5.9 21.4
03:30 1025 30.27 854 25.22 -3.7 25.3 85 -5.8 21.5
03:35 1025 30.27 854 25.22 -3.6 25.5 84 -6 21.2
03:40 1025 30.27 854 25.22 -3.6 25.5 83 -6.1 21
03:45 1025 30.27 854 25.22 -3.6 25.5 84 -5.9 21.3
03:50 1025 30.27 854 25.22 -3.5 25.6 83 -6 21.3
03:55 1025 30.27 855 25.25 -3.5 25.7 82 -6.1 21
04:00 1025 30.27 855 25.25 -3.4 25.9 82 -6 21.2
04:05 1025 30.27 855 25.25 -3.3 26 81 -6.1 20.9
04:10 1025 30.27 855 25.25 -3.2 26.2 82 -5.8 21.5
04:15 1026 30.3 855 25.25 -3.1 26.3 81 -6 21.3
04:20 1026 30.3 855 25.25 -3.1 26.5 82 -5.7 21.7
04:25 1026 30.3 855 25.25 -3.1 26.3 82 -5.8 21.5
04:30 1026 30.3 855 25.25 -3.2 26.3 81 -6 21.2
04:35 1026 30.3 855 25.25 -3.2 26.3 80 -6.1 21
04:40 1026 30.3 855 25.25 -3.2 26.2 80 -6.2 20.9
04:45 1026 30.3 855 25.25 -3.2 26.3 80 -6.1 21
04:50 1026 30.3 855 25.25 -3.1 26.4 80 -6.1 20.9
04:55 1026 30.3 855 25.25 -3.1 26.5 79 -6.2 20.9
05:00 1026 30.3 855 25.25 -3.1 26.4 79 -6.3 20.6
05:05 1026 30.3 855 25.25 -3.2 26.2 80 -6.3 20.7
05:10 1026 30.3 855 25.25 -3.2 26.2 81 -6.1 21.1
05:15 1026 30.3 855 25.25 -3.2 26.3 80 -6.2 20.9
05:20 1026 30.3 855 25.25 -3.2 26.2 79 -6.4 20.5
05:25 1026 30.3 855 25.25 -3.3 26 79 -6.4 20.4
05:30 1026 30.3 855 25.25 -3.3 26 79 -6.4 20.5
05:35 1026 30.3 855 25.25 -3.3 26.1 79 -6.4 20.5
05:40 1026 30.3 855 25.25 -3.2 26.2 78 -6.4 20.4
05:45 1026 30.3 855 25.25 -3.2 26.2 79 -6.4 20.5
05:50 1026 30.3 855 25.25 -3.2 26.3 79 -6.3 20.6
05:55 1026 30.3 855 25.25 -3.1 26.5 78 -6.3 20.6
06:00 1026 30.3 855 25.25 -3 26.5 79 -6.3 20.7
06:05 1026 30.3 855 25.25 -3 26.7 79 -6.2 20.9
06:10 1026 30.3 856 25.28 -2.9 26.8 78 -6.2 20.8
06:15 1026 30.3 856 25.28 -2.8 26.9 78 -6.2 20.9
06:20 1026 30.3 856 25.28 -2.8 26.9 78 -6.2 20.8
06:25 1027 30.33 856 25.28 -2.8 26.9 78 -6.1 20.9
06:30 1027 30.33 856 25.28 -2.7 27.1 78 -6 21.2
06:35 1027 30.33 856 25.28 -2.8 27 79 -5.9 21.4
06:40 1027 30.33 856 25.28 -2.9 26.9 80 -5.8 21.5
06:45 1027 30.33 856 25.28 -2.8 26.9 81 -5.7 21.7
06:50 1027 30.33 856 25.28 -2.8 27 81 -5.6 21.9
06:55 1027 30.33 856 25.28 -2.8 27 82 -5.5 22.2
07:00 1027 30.33 856 25.28 -2.8 26.9 83 -5.3 22.4
07:05 1027 30.33 856 25.28 -2.9 26.8 84 -5.2 22.6
07:10 1027 30.33 856 25.28 -2.9 26.7 84 -5.2 22.6
07:15 1027 30.33 856 25.28 -2.9 26.7 85 -5.2 22.6
07:20 1027 30.33 856 25.28 -2.9 26.8 85 -5.1 22.8
07:25 1027 30.33 857 25.31 -3 26.6 85 -5.2 22.6
07:30 1027 30.33 857 25.31 -3 26.7 85 -5.1 22.8
07:35 1027 30.33 857 25.31 -2.8 27 85 -5 23
07:40 1028 30.36 857 25.31 -2.8 27 85 -5 23.1
07:45 1028 30.36 857 25.31 -2.7 27.1 85 -4.9 23.1
07:50 1028 30.36 857 25.31 -2.7 27.2 84 -5 23.1
07:55 1028 30.36 857 25.31 -2.7 27.2 85 -4.9 23.2
08:00 1028 30.36 857 25.31 -2.5 27.4 84 -4.9 23.2
08:05 1028 30.36 857 25.31 -2.5 27.5 84 -4.9 23.2
08:10 1028 30.36 857 25.31 -2.4 27.7 83 -4.9 23.3
08:15 1028 30.36 857 25.31 -2.3 27.9 83 -4.7 23.5
08:20 1028 30.36 857 25.31 -2.1 28.2 83 -4.7 23.6
08:25 1028 30.36 857 25.31 -1.9 28.6 81 -4.7 23.5
08:30 1028 30.36 857 25.31 -1.9 28.5 80 -4.9 23.2
08:35 1028 30.36 857 25.31 -2.2 28.1 82 -4.9 23.2
08:40 1028 30.36 857 25.31 -2.2 28.1 80 -5.1 22.8
08:45 1028 30.36 857 25.31 -2.1 28.3 80 -5 23
08:50 1028 30.36 858 25.34 -1.9 28.6 80 -4.9 23.1
08:55 1028 30.36 858 25.34 -1.7 29 77 -5.1 22.8
09:00 1028 30.36 858 25.34 -1.6 29.1 77 -5.1 22.8
09:05 1028 30.36 858 25.34 -1.7 29 77 -5.3 22.5
09:10 1028 30.36 858 25.34 -1.6 29.2 75 -5.4 22.3
09:15 1029 30.39 858 25.34 -1.2 29.8 74 -5.3 22.5
09:20 1029 30.39 858 25.34 -0.9 30.4 74 -5 23.1
09:25 1029 30.39 858 25.34 -1.1 29.9 76 -4.9 23.2
09:30 1029 30.39 858 25.34 -1.4 29.6 77 -5 23.1
09:35 1029 30.39 858 25.34 -1.3 29.7 77 -4.9 23.2
09:40 1029 30.39 858 25.34 -1.3 29.7 77 -4.9 23.2
09:45 1029 30.39 858 25.34 -1.1 30.1 75 -5 23.1
09:50 1029 30.39 858 25.34 -1.1 30.1 77 -4.6 23.7
09:55 1029 30.39 858 25.34 -1 30.2 75 -4.9 23.1
10:00 1029 30.39 858 25.34 -0.7 30.7 72 -5.1 22.9
10:05 1029 30.39 858 25.34 -0.1 31.9 69 -5.1 22.8
10:10 1029 30.39 858 25.34 -0.1 31.8 69 -5.2 22.7
10:15 1029 30.39 858 25.34 -0.2 31.6 69 -5.2 22.6
10:20 1029 30.39 858 25.34 0.2 32.4 66 -5.4 22.3
10:25 1029 30.39 858 25.34 1.2 34.1 63 -5.2 22.7
10:30 1029 30.39 858 25.34 1 33.8 62 -5.4 22.3
10:35 1029 30.39 858 25.34 0.5 32.9 66 -5.2 22.6
10:40 1029 30.39 858 25.34 0.3 32.5 66 -5.3 22.5
10:45 1029 30.39 858 25.34 0.4 32.7 67 -5.1 22.9
10:50 1029 30.39 858 25.34 0.8 33.5 64 -5.2 22.6
10:55 1029 30.39 858 25.34 2 35.6 58 -5.3 22.4
11:00 1029 30.39 858 25.34 2.3 36.1 60 -4.8 23.4
11:05 1029 30.39 858 25.34 1.5 34.7 59 -5.6 21.9
11:10 1029 30.39 858 25.34 1.7 35 59 -5.4 22.2
11:15 1029 30.39 858 25.34 1.9 35.4 59 -5.3 22.4
11:20 1029 30.39 858 25.34 1.8 35.2 60 -5.1 22.8
11:25 1029 30.39 858 25.34 1.7 35.1 57 -5.9 21.4
11:30 1029 30.39 858 25.34 1.9 35.4 56 -6 21.2
11:35 1029 30.39 858 25.34 1.5 34.7 58 -5.9 21.4
11:40 1029 30.39 858 25.34 1.9 35.4 54 -6.4 20.5
11:45 1029 30.39 858 25.34 2.1 35.8 55 -5.9 21.3
11:50 1029 30.39 858 25.34 2.1 35.7 58 -5.4 22.3
11:55 1029 30.39 858 25.34 2.1 35.7 55 -6.1 21
12:00 1029 30.39 858 25.34 2 35.6 56 -5.9 21.3
12:05 1029 30.39 858 25.34 2.7 36.9 51 -6.3 20.6
12:10 1029 30.39 858 25.34 2.6 36.8 52 -6.2 20.8
12:15 1028 30.36 858 25.34 2.1 35.8 56 -5.8 21.6
12:20 1028 30.36 858 25.34 1.7 35 59 -5.4 22.2
12:25 1028 30.36 858 25.34 0.8 33.4 61 -6 21.3
12:30 1028 30.36 858 25.34 1.5 34.6 58 -6 21.2
12:35 1028 30.36 858 25.34 1.1 33.9 62 -5.4 22.3
12:40 1028 30.36 858 25.34 1.3 34.3 57 -6.4 20.5
12:45 1028 30.36 858 25.34 1.6 34.9 54 -6.7 19.9
12:50 1028 30.36 858 25.34 2.3 36.2 53 -6.2 20.8
12:55 1028 30.36 858 25.34 2.2 35.9 56 -5.8 21.6
13:00 1028 30.36 858 25.34 2.5 36.4 52 -6.3 20.6
13:05 1028 30.36 858 25.34 2.4 36.3 57 -5.3 22.5
13:10 1028 30.36 858 25.34 2.1 35.8 55 -6 21.1
13:15 1029 30.39 858 25.34 3.2 37.7 52 -5.8 21.5
13:20 1028 30.36 858 25.34 2 35.5 57 -5.7 21.7
13:25 1028 30.36 858 25.34 1.2 34.2 62 -5.3 22.5
13:30 1028 30.36 858 25.34 1.6 35 56 -6.2 20.9
13:35 1028 30.36 858 25.34 1.9 35.4 56 -6 21.3
13:40 1028 30.36 858 25.34 2.7 36.9 52 -6.1 21.1
13:45 1028 30.36 858 25.34 3.3 37.9 51 -5.9 21.4
13:50 1028 30.36 858 25.34 3.5 38.2 53 -5.3 22.4
13:55 1028 30.36 858 25.34 3.5 38.4 50 -6 21.1
14:00 1028 30.36 858 25.34 2.4 36.4 53 -6.1 21
14:05 1028 30.36 858 25.34 3.1 37.6 53 -5.7 21.8
14:10 1028 30.36 857 25.31 3.3 38 52 -5.6 21.9
14:15 1028 30.36 857 25.31 3.1 37.6 51 -6 21.2
14:20 1028 30.36 857 25.31 3.1 37.7 53 -5.6 21.9
14:25 1028 30.36 857 25.31 3.1 37.5 51 -6 21.2
14:30 1028 30.36 857 25.31 3.5 38.4 51 -5.6 22
14:35 1028 30.36 857 25.31 3.2 37.7 52 -5.6 21.8
14:40 1028 30.36 857 25.31 2.8 37.1 55 -5.4 22.2
14:45 1028 30.36 857 25.31 2.8 37.1 54 -5.6 21.9
14:50 1028 30.36 857 25.31 2.7 36.9 55 -5.4 22.4
14:55 1028 30.36 857 25.31 3.4 38.1 53 -5.3 22.4
15:00 1028 30.36 858 25.34 3.6 38.5 51 -5.6 21.8
15:05 1028 30.36 857 25.31 3.4 38.1 52 -5.4 22.2
15:10 1028 30.36 857 25.31 2.6 36.8 55 -5.4 22.3
15:15 1028 30.36 857 25.31 2.6 36.7 52 -6.2 20.9
15:20 1028 30.36 857 25.31 3.4 38.1 51 -5.7 21.7
15:25 1028 30.36 858 25.34 3 37.4 55 -5.2 22.6
15:30 1028 30.36 857 25.31 2.1 35.8 57 -5.4 22.2
15:35 1028 30.36 857 25.31 2.5 36.5 55 -5.7 21.7
15:40 1028 30.36 857 25.31 2.5 36.6 55 -5.5 22.1
15:45 1028 30.36 857 25.31 2 35.6 56 -5.9 21.4
15:50 1028 30.36 857 25.31 2.1 35.8 57 -5.6 21.9
15:55 1028 30.36 857 25.31 2.8 37 54 -5.7 21.7
16:00 1028 30.36 857 25.31 3.3 38 51 -5.9 21.3
16:05 1028 30.36 857 25.31 2.6 36.7 55 -5.5 22
16:10 1028 30.36 857 25.31 2.3 36.1 53 -6.4 20.5
16:15 1028 30.36 857 25.31 2.5 36.5 54 -5.8 21.5
16:20 1028 30.36 857 25.31 2.2 36 55 -5.9 21.3
16:25 1028 30.36 857 25.31 2.7 36.9 54 -5.6 21.9
16:30 1028 30.36 857 25.31 3.3 37.9 51 -5.9 21.5
16:35 1028 30.36 857 25.31 3.9 39 48 -6 21.1
16:40 1028 30.36 857 25.31 3.7 38.7 50 -5.7 21.7
16:45 1028 30.36 857 25.31 3.5 38.3 50 -6 21.2
16:50 1028 30.36 857 25.31 4 39.1 48 -6 21.1
16:55 1028 30.36 857 25.31 3.3 38 54 -5.2 22.6
17:00 1028 30.36 857 25.31 2.7 36.9 51 -6.4 20.6
17:05 1028 30.36 857 25.31 3.4 38.1 50 -6.1 21.1
17:10 1028 30.36 857 25.31 3.6 38.5 49 -6.1 20.9
17:15 1028 30.36 857 25.31 3.6 38.4 51 -5.6 22
17:20 1028 30.36 857 25.31 2.5 36.6 55 -5.7 21.8
17:25 1028 30.36 857 25.31 2 35.5 57 -5.7 21.7
17:30 1028 30.36 857 25.31 2.3 36.1 54 -6.1 21
17:35 1028 30.36 857 25.31 2.5 36.4 55 -5.6 22
17:40 1028 30.36 857 25.31 2.7 36.8 54 -5.6 21.9
17:45 1028 30.36 857 25.31 2.4 36.4 55 -5.7 21.7
17:50 1028 30.36 857 25.31 2.2 36 55 -5.9 21.4
17:55 1028 30.36 857 25.31 2.1 35.8 56 -5.7 21.7
18:00 1028 30.36 857 25.31 2 35.6 57 -5.6 22
18:05 1028 30.36 857 25.31 1.8 35.2 59 -5.4 22.3
18:10 1028 30.36 857 25.31 1.6 34.9 60 -5.3 22.5
18:15 1028 30.36 857 25.31 1.5 34.8 61 -5.2 22.7
18:20 1028 30.36 857 25.31 1.4 34.5 63 -5 23
18:25 1028 30.36 857 25.31 1.1 34 63 -5.1 22.9
18:30 1028 30.36 857 25.31 1 33.7 64 -5.1 22.9
18:35 1028 30.36 857 25.31 0.9 33.7 64 -5.1 22.8
18:40 1028 30.36 857 25.31 0.9 33.5 64 -5.1 22.8
18:45 1028 30.36 857 25.31 0.8 33.4 65 -5 23.1
18:50 1028 30.36 857 25.31 0.7 33.3 66 -5 23
18:55 1028 30.36 857 25.31 0.7 33.2 66 -5 23.1
19:00 1028 30.36 857 25.31 0.6 33.1 67 -4.7 23.5
19:05 1028 30.36 857 25.31 0.5 32.9 67 -4.9 23.2
19:10 1028 30.36 857 25.31 0.5 32.8 67 -4.9 23.2
19:15 1028 30.36 857 25.31 0.4 32.7 69 -4.7 23.5
19:20 1027 30.33 857 25.31 0.2 32.3 70 -4.7 23.5
19:25 1027 30.33 857 25.31 0 32 71 -4.7 23.5
19:30 1027 30.33 857 25.31 -0.1 31.8 73 -4.4 24.1
19:35 1027 30.33 857 25.31 -0.4 31.3 75 -4.3 24.2
19:40 1027 30.33 857 25.31 -0.5 31 76 -4.3 24.3
19:45 1027 30.33 857 25.31 -0.8 30.6 77 -4.3 24.3
19:50 1027 30.33 857 25.31 -0.9 30.4 78 -4.2 24.5
19:55 1027 30.33 857 25.31 -1.1 30 79 -4.3 24.3
20:00 1027 30.33 857 25.31 -1.2 29.8 80 -4.3 24.3
20:05 1027 30.33 857 25.31 -1.3 29.7 81 -4.2 24.4
20:10 1027 30.33 857 25.31 -1.4 29.4 79 -4.5 23.8
20:15 1027 30.33 857 25.31 -1.3 29.7 80 -4.3 24.2
20:20 1027 30.33 857 25.31 -1.3 29.6 81 -4.2 24.5
20:25 1027 30.33 857 25.31 -1.6 29.1 81 -4.5 23.9
20:30 1027 30.33 857 25.31 -1.8 28.8 82 -4.5 23.9
20:35 1027 30.33 857 25.31 -1.9 28.5 84 -4.3 24.3
20:40 1027 30.33 857 25.31 -2.1 28.3 83 -4.5 23.9
20:45 1027 30.33 857 25.31 -2.1 28.1 82 -4.8 23.4
20:50 1027 30.33 857 25.31 -2.1 28.2 81 -5 23
20:55 1027 30.33 857 25.31 -2 28.4 81 -4.9 23.2
21:00 1028 30.36 857 25.31 -2.1 28.2 81 -5 23
21:05 1028 30.36 857 25.31 -2.1 28.2 81 -5 23
21:10 1028 30.36 857 25.31 -2.1 28.3 80 -5.1 22.9
21:15 1028 30.36 857 25.31 -1.9 28.6 78 -5.2 22.6
21:20 1028 30.36 857 25.31 -1.9 28.5 78 -5.3 22.4
21:25 1028 30.36 857 25.31 -1.8 28.7 77 -5.3 22.4
21:30 1028 30.36 857 25.31 -1.8 28.7 78 -5.1 22.8
21:35 1028 30.36 857 25.31 -2 28.3 80 -5 22.9
21:40 1028 30.36 857 25.31 -2.3 27.8 81 -5.1 22.7
21:45 1028 30.36 857 25.31 -2.4 27.6 80 -5.3 22.4
21:50 1028 30.36 857 25.31 -2.3 27.8 79 -5.5 22.1
21:55 1028 30.36 857 25.31 -2.3 27.9 79 -5.5 22.1
22:00 1028 30.36 857 25.31 -1.9 28.6 77 -5.5 22.2
22:05 1028 30.36 857 25.31 -1.8 28.8 78 -5.1 22.8
22:10 1028 30.36 857 25.31 -1.9 28.6 77 -5.3 22.5
22:15 1028 30.36 857 25.31 -1.9 28.6 77 -5.4 22.3
22:20 1028 30.36 857 25.31 -1.9 28.6 78 -5.2 22.6
22:25 1028 30.36 857 25.31 -1.9 28.6 78 -5.2 22.6
22:30 1028 30.36 857 25.31 -1.9 28.6 78 -5.3 22.5
22:35 1028 30.36 857 25.31 -1.8 28.7 78 -5.2 22.6
22:40 1028 30.36 857 25.31 -1.7 28.9 77 -5.3 22.5
22:45 1028 30.36 857 25.31 -1.8 28.8 77 -5.3 22.5
22:50 1028 30.36 857 25.31 -1.9 28.6 77 -5.3 22.4
22:55 1028 30.36 857 25.31 -2 28.3 79 -5.3 22.5
23:00 1028 30.36 857 25.31 -2.2 28.1 79 -5.4 22.3
23:05 1028 30.36 857 25.31 -2 28.4 77 -5.5 22.2
23:10 1028 30.36 857 25.31 -1.9 28.6 78 -5.2 22.6
23:15 1027 30.33 857 25.31 -2.2 28 79 -5.3 22.4
23:20 1027 30.33 857 25.31 -2.3 27.9 79 -5.4 22.3
23:25 1027 30.33 857 25.31 -2.5 27.6 80 -5.4 22.3
23:30 1027 30.33 857 25.31 -2.5 27.5 80 -5.5 22.2
23:35 1027 30.33 856 25.28 -2.6 27.3 81 -5.4 22.2
23:40 1027 30.33 856 25.28 -2.6 27.3 81 -5.4 22.2
23:45 1027 30.33 856 25.28 -2.6 27.3 81 -5.4 22.3
23:50 1027 30.33 856 25.28 -2.8 26.9 82 -5.4 22.3
23:55 1027 30.33 856 25.28 -2.9 26.8 82 -5.5 22.2
24:00 1027 30.33 856 25.28 -2.7 27.1 82 -5.4 22.3